createdAt,value
2022-11-26T00:01:24.247Z,13.02
2022-11-26T00:03:41.301Z,8.82
2022-11-26T00:05:59.685Z,9.80
2022-11-26T00:08:16.977Z,11.35
2022-11-26T00:10:39.918Z,9.75
2022-11-26T00:12:57.865Z,9.18
2022-11-26T00:15:15.212Z,11.57
2022-11-26T00:17:32.315Z,10.45
2022-11-26T00:19:49.595Z,13.00
2022-11-26T00:22:09.787Z,10.02
2022-11-26T00:24:27.833Z,9.70
2022-11-26T00:26:46.041Z,10.60
2022-11-26T00:29:03.164Z,11.27
2022-11-26T00:31:20.224Z,8.18
2022-11-26T00:33:37.498Z,7.57
2022-11-26T00:35:54.458Z,13.32
2022-11-26T00:38:11.765Z,11.48
2022-11-26T00:40:29.026Z,8.98
2022-11-26T00:42:46.129Z,10.35
2022-11-26T00:45:03.590Z,8.52
2022-11-26T00:47:20.489Z,8.93
2022-11-26T00:49:37.552Z,7.93
2022-11-26T00:51:54.547Z,9.82
2022-11-26T00:54:11.413Z,10.10
2022-11-26T00:56:28.356Z,9.32
2022-11-26T00:58:45.249Z,10.70
2022-11-26T01:01:02.408Z,14.18
2022-11-26T01:03:19.629Z,10.10
2022-11-26T01:05:36.620Z,12.38
2022-11-26T01:07:53.908Z,14.73
2022-11-26T01:10:10.977Z,10.38
2022-11-26T01:12:27.947Z,8.95
2022-11-26T01:14:45.217Z,8.85
2022-11-26T01:17:02.634Z,6.55
2022-11-26T01:19:19.706Z,11.52
2022-11-26T01:21:38.242Z,9.27
2022-11-26T01:23:55.503Z,10.77
2022-11-26T01:26:12.795Z,10.02
2022-11-26T01:28:30.650Z,7.70
2022-11-26T01:30:48.711Z,8.23
2022-11-26T01:33:05.704Z,8.55
2022-11-26T01:35:25.387Z,14.27
2022-11-26T01:37:42.382Z,8.90
2022-11-26T01:40:01.848Z,9.32
2022-11-26T01:42:18.786Z,11.00
2022-11-26T01:44:36.713Z,8.73
2022-11-26T01:46:53.967Z,7.70
2022-11-26T01:49:19.499Z,11.27
2022-11-26T01:51:36.830Z,8.45
2022-11-26T01:53:53.744Z,6.68
2022-11-26T01:56:11.083Z,7.65
2022-11-26T01:58:28.464Z,8.20
2022-11-26T02:00:45.790Z,8.00
2022-11-26T02:03:02.878Z,9.77
2022-11-26T02:05:20.115Z,9.85
2022-11-26T02:07:37.359Z,9.27
2022-11-26T02:09:58.112Z,6.35
2022-11-26T02:12:15.151Z,9.52
2022-11-26T02:14:31.977Z,9.88
2022-11-26T02:16:48.970Z,9.45
2022-11-26T02:19:06.281Z,7.45
2022-11-26T02:21:23.553Z,7.22
2022-11-26T02:23:41.504Z,10.38
2022-11-26T02:25:58.477Z,9.00
2022-11-26T02:28:15.455Z,8.73
2022-11-26T02:30:32.442Z,10.77
2022-11-26T02:32:49.481Z,8.07
2022-11-26T02:35:06.729Z,5.97
2022-11-26T02:37:23.981Z,11.23
2022-11-26T02:39:41.209Z,10.20
2022-11-26T02:41:58.490Z,10.75
2022-11-26T02:44:15.729Z,8.27
2022-11-26T02:46:34.027Z,10.15
2022-11-26T02:48:51.013Z,9.23
2022-11-26T02:51:08.254Z,10.70
2022-11-26T02:53:26.277Z,11.48
2022-11-26T02:55:43.543Z,13.73
2022-11-26T02:58:00.438Z,9.25
2022-11-26T03:00:18.425Z,11.38
2022-11-26T03:02:35.656Z,7.28
2022-11-26T03:04:52.554Z,10.20
2022-11-26T03:07:09.597Z,10.75
2022-11-26T03:09:27.160Z,8.38
2022-11-26T03:11:45.081Z,13.45
2022-11-26T03:14:02.309Z,12.55
2022-11-26T03:16:19.617Z,16.10
2022-11-26T03:18:36.604Z,15.43
2022-11-26T03:20:53.885Z,13.57
2022-11-26T03:23:11.824Z,10.82
2022-11-26T03:25:28.834Z,9.55
2022-11-26T03:27:46.798Z,14.05
2022-11-26T03:30:04.117Z,15.65
2022-11-26T03:32:21.396Z,11.75
2022-11-26T03:34:38.569Z,17.42
2022-11-26T03:36:56.913Z,12.15
2022-11-26T03:39:14.086Z,13.52
2022-11-26T03:41:31.439Z,10.98
2022-11-26T03:43:49.707Z,17.17
2022-11-26T03:46:07.017Z,19.73
2022-11-26T03:48:24.262Z,17.23
2022-11-26T03:50:41.312Z,12.73
2022-11-26T03:52:59.228Z,17.30
2022-11-26T03:55:16.503Z,16.60
2022-11-26T03:57:33.472Z,15.27
2022-11-26T03:59:50.524Z,18.10
2022-11-26T04:02:07.490Z,19.83
2022-11-26T04:04:25.538Z,28.02
2022-11-26T04:06:42.734Z,21.83
2022-11-26T04:09:01.033Z,19.10
2022-11-26T04:11:18.007Z,11.13
2022-11-26T04:13:35.247Z,11.68
2022-11-26T04:15:52.548Z,21.63
2022-11-26T04:18:09.776Z,18.05
2022-11-26T04:20:27.392Z,19.77
2022-11-26T04:22:44.416Z,23.50
2022-11-26T04:25:01.954Z,6.93
2022-11-26T04:27:18.916Z,21.02
2022-11-26T04:29:37.149Z,15.48
2022-11-26T04:31:54.436Z,14.35
2022-11-26T04:34:12.704Z,14.63
2022-11-26T04:36:29.708Z,12.30
2022-11-26T04:38:47.987Z,13.77
2022-11-26T04:41:07.474Z,8.77
2022-11-26T04:43:24.922Z,9.73
2022-11-26T04:45:41.973Z,7.88
2022-11-26T04:47:58.912Z,11.77
2022-11-26T04:50:16.091Z,10.05
2022-11-26T04:52:33.113Z,7.53
2022-11-26T04:54:50.661Z,9.23
2022-11-26T04:57:08.896Z,12.75
2022-11-26T04:59:26.147Z,9.38
2022-11-26T05:01:43.302Z,14.57
2022-11-26T05:04:00.608Z,6.82
2022-11-26T05:06:17.474Z,8.02
2022-11-26T05:08:34.782Z,6.93
2022-11-26T05:10:51.688Z,6.07
2022-11-26T05:13:09.900Z,5.53
2022-11-26T05:15:27.133Z,4.05
2022-11-26T05:17:44.204Z,6.57
2022-11-26T05:20:01.461Z,13.00
2022-11-26T05:22:18.795Z,6.03
2022-11-26T05:24:35.921Z,8.57
2022-11-26T05:26:56.875Z,4.90
2022-11-26T05:29:14.255Z,6.22
2022-11-26T05:31:31.612Z,4.97
2022-11-26T05:33:48.795Z,12.55
2022-11-26T05:36:07.138Z,3.75
2022-11-26T05:38:24.409Z,8.65
2022-11-26T05:40:41.670Z,6.20
2022-11-26T05:42:58.985Z,5.28
2022-11-26T05:45:16.310Z,4.93
2022-11-26T05:47:33.170Z,4.50
2022-11-26T05:49:50.722Z,5.57
2022-11-26T05:52:08.040Z,5.35
2022-11-26T05:54:25.041Z,6.47
2022-11-26T05:56:42.081Z,6.72
2022-11-26T05:58:59.061Z,7.05
2022-11-26T06:01:16.348Z,7.00
2022-11-26T06:03:33.238Z,6.60
2022-11-26T06:05:50.245Z,7.65
2022-11-26T06:08:08.512Z,5.25
2022-11-26T06:10:25.814Z,5.45
2022-11-26T06:12:42.778Z,8.15
2022-11-26T06:15:00.073Z,10.73
2022-11-26T06:17:16.961Z,11.88
2022-11-26T06:19:34.257Z,20.27
2022-11-26T06:21:51.546Z,5.70
2022-11-26T06:24:08.990Z,7.40
2022-11-26T06:26:26.022Z,3.67
2022-11-26T06:28:43.097Z,8.43
2022-11-26T06:31:00.358Z,6.85
2022-11-26T06:33:17.704Z,15.00
2022-11-26T06:35:34.722Z,9.27
2022-11-26T06:37:51.969Z,21.30
2022-11-26T06:40:09.331Z,5.57
2022-11-26T06:42:26.555Z,8.18
2022-11-26T06:44:44.147Z,4.28
2022-11-26T06:47:01.348Z,27.00
2022-11-26T06:49:18.836Z,6.07
2022-11-26T06:51:35.899Z,6.82
2022-11-26T06:53:52.926Z,7.07
2022-11-26T06:56:14.807Z,8.68
2022-11-26T06:58:35.826Z,10.55
2022-11-26T07:00:52.862Z,19.40
2022-11-26T07:03:10.039Z,14.27
2022-11-26T07:05:27.444Z,16.95
2022-11-26T07:07:44.526Z,13.63
2022-11-26T07:10:01.753Z,11.73
2022-11-26T07:12:19.037Z,10.38
2022-11-26T07:14:37.261Z,9.20
2022-11-26T07:16:54.830Z,41.88
2022-11-26T07:19:12.122Z,38.25
2022-11-26T07:21:29.093Z,7.85
2022-11-26T07:23:46.164Z,9.75
2022-11-26T07:26:04.174Z,14.43
2022-11-26T07:28:21.261Z,12.55
2022-11-26T07:30:38.609Z,11.02
2022-11-26T07:32:56.878Z,6.03
2022-11-26T07:35:13.824Z,19.42
2022-11-26T07:37:32.112Z,5.90
2022-11-26T07:39:49.447Z,10.88
2022-11-26T07:42:06.497Z,14.55
2022-11-26T07:44:24.749Z,5.07
2022-11-26T07:46:41.785Z,11.75
2022-11-26T07:48:58.796Z,4.63
2022-11-26T07:51:15.882Z,4.82
2022-11-26T07:53:32.751Z,5.28
2022-11-26T07:55:49.683Z,10.52
2022-11-26T07:58:06.624Z,8.68
2022-11-26T08:00:23.956Z,10.23
2022-11-26T08:02:41.066Z,5.10
2022-11-26T08:04:59.173Z,6.38
2022-11-26T08:07:24.323Z,8.50
2022-11-26T08:09:44.886Z,8.27
2022-11-26T08:12:02.148Z,6.93
2022-11-26T08:14:19.350Z,6.05
2022-11-26T08:16:36.389Z,5.78
2022-11-26T08:18:53.339Z,9.25
2022-11-26T08:21:10.622Z,10.57
2022-11-26T08:23:27.513Z,6.50
2022-11-26T08:26:06.106Z,9.55
2022-11-26T08:28:21.616Z,7.93
2022-11-26T08:30:38.602Z,5.72
2022-11-26T08:32:55.922Z,6.72
2022-11-26T08:35:12.969Z,5.95
2022-11-26T08:37:30.754Z,5.43
2022-11-26T08:39:47.657Z,6.90
2022-11-26T08:42:04.900Z,5.68
2022-11-26T08:44:22.125Z,9.57
2022-11-26T08:46:39.464Z,7.63
2022-11-26T08:48:56.949Z,8.60
2022-11-26T08:51:13.986Z,7.10
2022-11-26T08:53:31.265Z,7.32
2022-11-26T08:56:00.015Z,6.90
2022-11-26T08:58:17.638Z,6.68
2022-11-26T09:00:34.683Z,7.45
2022-11-26T09:02:52.052Z,6.88
2022-11-26T09:05:09.340Z,4.53
2022-11-26T09:07:26.359Z,4.10
2022-11-26T09:09:43.696Z,4.93
2022-11-26T09:12:02.021Z,5.00
2022-11-26T09:14:19.903Z,4.72
2022-11-26T09:16:37.249Z,3.42
2022-11-26T09:18:54.545Z,5.20
2022-11-26T09:21:11.469Z,3.80
2022-11-26T09:23:28.601Z,5.13
2022-11-26T09:25:45.660Z,4.88
2022-11-26T09:28:03.327Z,4.05
2022-11-26T09:30:20.347Z,3.65
2022-11-26T09:32:37.637Z,4.90
2022-11-26T09:34:54.839Z,3.63
2022-11-26T09:37:12.955Z,3.50
2022-11-26T09:39:30.923Z,4.70
2022-11-26T09:41:49.020Z,7.82
2022-11-26T09:44:06.250Z,7.65
2022-11-26T09:46:23.258Z,4.25
2022-11-26T09:48:40.196Z,6.55
2022-11-26T09:50:57.360Z,3.88
2022-11-26T09:53:14.384Z,4.57
2022-11-26T09:55:31.346Z,4.40
2022-11-26T09:57:48.470Z,7.50
2022-11-26T10:00:05.712Z,6.35
2022-11-26T10:02:23.193Z,6.32
2022-11-26T10:04:41.377Z,6.20
2022-11-26T10:06:58.786Z,6.28
2022-11-26T10:09:15.722Z,3.72
2022-11-26T10:11:32.798Z,4.07
2022-11-26T10:13:49.778Z,7.18
2022-11-26T10:16:06.835Z,4.93
2022-11-26T10:18:25.226Z,5.70
2022-11-26T10:20:42.486Z,3.45
2022-11-26T10:22:59.456Z,4.82
2022-11-26T10:25:16.722Z,4.57
2022-11-26T10:27:33.908Z,6.47
2022-11-26T10:29:50.935Z,3.72
2022-11-26T10:32:08.203Z,4.20
2022-11-26T10:34:28.924Z,5.80
2022-11-26T10:36:49.125Z,5.35
2022-11-26T10:39:06.080Z,5.25
2022-11-26T10:41:24.057Z,5.80
2022-11-26T10:43:41.383Z,5.60
2022-11-26T10:45:58.389Z,4.38
2022-11-26T10:48:16.637Z,4.63
2022-11-26T10:50:47.569Z,7.93
2022-11-26T10:53:04.990Z,5.45
2022-11-26T10:55:22.070Z,8.02
2022-11-26T10:57:39.133Z,10.60
2022-11-26T10:59:56.332Z,11.05
2022-11-26T11:02:13.460Z,10.27
2022-11-26T11:04:30.444Z,8.27
2022-11-26T11:06:47.699Z,8.77
2022-11-26T11:09:05.991Z,11.25
2022-11-26T11:11:22.915Z,8.48
2022-11-26T11:13:40.373Z,8.98
2022-11-26T11:15:57.740Z,30.40
2022-11-26T11:18:14.820Z,11.18
2022-11-26T11:20:31.751Z,10.35
2022-11-26T11:22:51.869Z,13.73
2022-11-26T11:25:11.034Z,12.43
2022-11-26T11:27:28.310Z,9.48
2022-11-26T11:29:45.604Z,13.52
2022-11-26T11:32:02.917Z,12.43
2022-11-26T11:34:20.177Z,8.65
2022-11-26T11:36:38.117Z,9.88
2022-11-26T11:38:55.364Z,11.68
2022-11-26T11:41:13.031Z,8.20
2022-11-26T11:43:30.565Z,11.00
2022-11-26T11:45:52.882Z,9.27
2022-11-26T11:48:10.393Z,7.75
2022-11-26T11:50:28.357Z,9.60
2022-11-26T11:52:45.395Z,8.98
2022-11-26T11:55:02.273Z,8.57
2022-11-26T11:57:19.159Z,6.43
2022-11-26T11:59:36.251Z,6.00
2022-11-26T12:01:53.298Z,8.77
2022-11-26T12:04:16.414Z,5.70
2022-11-26T12:06:36.389Z,8.43
2022-11-26T12:08:54.275Z,7.00
2022-11-26T12:11:11.359Z,7.28
2022-11-26T12:13:29.289Z,9.18
2022-11-26T12:15:47.476Z,7.32
2022-11-26T12:18:04.400Z,6.32
2022-11-26T12:20:21.664Z,8.13
2022-11-26T12:22:38.638Z,7.25
2022-11-26T12:24:55.569Z,5.75
2022-11-26T12:27:13.504Z,6.70
2022-11-26T12:29:31.647Z,6.05
2022-11-26T12:31:48.654Z,6.40
2022-11-26T12:34:08.724Z,7.72
2022-11-26T12:36:26.987Z,8.18
2022-11-26T12:38:44.094Z,3.78
2022-11-26T12:41:01.141Z,4.78
2022-11-26T12:43:18.482Z,5.35
2022-11-26T12:45:35.733Z,4.93
2022-11-26T12:47:52.739Z,6.30
2022-11-26T12:50:09.991Z,6.40
2022-11-26T12:52:27.261Z,9.15
2022-11-26T12:54:45.135Z,6.13
2022-11-26T12:57:02.487Z,5.35
2022-11-26T12:59:19.373Z,5.15
2022-11-26T13:01:36.724Z,5.32
2022-11-26T13:04:14.465Z,4.82
2022-11-26T13:06:30.983Z,4.15
2022-11-26T13:08:48.204Z,4.70
2022-11-26T13:11:08.819Z,6.28
2022-11-26T13:13:27.262Z,5.57
2022-11-26T13:15:44.357Z,5.18
2022-11-26T13:18:01.644Z,4.93
2022-11-26T13:20:18.790Z,6.68
2022-11-26T13:22:35.792Z,6.40
2022-11-26T13:24:52.725Z,6.47
2022-11-26T13:27:11.004Z,6.97
2022-11-26T13:29:28.299Z,6.32
2022-11-26T13:31:45.729Z,6.30
2022-11-26T13:34:02.800Z,6.25
2022-11-26T13:36:20.112Z,6.85
2022-11-26T13:38:37.244Z,6.70
2022-11-26T13:40:58.585Z,7.20
2022-11-26T13:43:16.044Z,4.53
2022-11-26T13:45:33.025Z,4.38
2022-11-26T13:47:51.033Z,6.50
2022-11-26T13:50:08.232Z,5.65
2022-11-26T13:52:25.164Z,4.43
2022-11-26T13:54:42.668Z,4.05
2022-11-26T13:57:00.136Z,4.65
2022-11-26T13:59:17.462Z,4.28
2022-11-26T14:01:34.600Z,4.88
2022-11-26T14:03:51.617Z,4.40
2022-11-26T14:06:08.621Z,5.63
2022-11-26T14:08:25.813Z,9.23
2022-11-26T14:10:42.763Z,5.10
2022-11-26T14:12:59.724Z,4.07
2022-11-26T14:15:17.047Z,6.43
2022-11-26T14:17:35.358Z,6.65
2022-11-26T14:19:52.448Z,5.70
2022-11-26T14:22:10.729Z,3.78
2022-11-26T14:24:28.997Z,5.32
2022-11-26T14:26:46.320Z,4.20
2022-11-26T14:29:06.140Z,4.88
2022-11-26T14:31:25.907Z,5.78
2022-11-26T14:33:43.807Z,3.78
2022-11-26T14:36:00.690Z,6.38
2022-11-26T14:38:17.919Z,5.63
2022-11-26T14:40:34.889Z,5.07
2022-11-26T14:42:53.264Z,5.47
2022-11-26T14:45:11.603Z,3.08
2022-11-26T14:47:29.862Z,4.35
2022-11-26T14:49:47.107Z,6.35
2022-11-26T14:52:04.354Z,6.25
2022-11-26T14:54:21.619Z,6.85
2022-11-26T14:56:38.569Z,5.18
2022-11-26T14:58:55.632Z,5.47
2022-11-26T15:01:12.929Z,5.65
2022-11-26T15:03:29.991Z,5.93
2022-11-26T15:05:47.772Z,4.95
2022-11-26T15:08:04.989Z,9.50
2022-11-26T15:10:22.282Z,6.68
2022-11-26T15:12:39.529Z,7.88
2022-11-26T15:14:56.585Z,7.13
2022-11-26T15:17:13.696Z,7.30
2022-11-26T15:19:30.664Z,7.10
2022-11-26T15:21:49.771Z,5.05
2022-11-26T15:24:07.037Z,8.07
2022-11-26T15:26:24.069Z,6.07
2022-11-26T15:28:41.309Z,5.82
2022-11-26T15:30:58.360Z,5.53
2022-11-26T15:33:15.794Z,10.15
2022-11-26T15:35:33.027Z,7.63
2022-11-26T15:37:51.191Z,4.28
2022-11-26T15:40:09.504Z,6.68
2022-11-26T15:42:26.549Z,5.60
2022-11-26T15:44:43.784Z,6.50
2022-11-26T15:47:01.259Z,7.35
2022-11-26T15:49:18.235Z,5.45
2022-11-26T15:51:36.233Z,7.38
2022-11-26T15:53:53.391Z,4.93
2022-11-26T15:56:10.746Z,5.55
2022-11-26T15:58:27.753Z,6.43
2022-11-26T16:00:44.820Z,6.95
2022-11-26T16:03:03.969Z,7.93
2022-11-26T16:05:20.881Z,7.80
2022-11-26T16:07:38.947Z,5.85
2022-11-26T16:09:56.017Z,7.80
2022-11-26T16:12:13.248Z,11.75
2022-11-26T16:14:30.514Z,9.15
2022-11-26T16:16:48.412Z,7.68
2022-11-26T16:19:06.677Z,6.82
2022-11-26T16:21:23.522Z,9.40
2022-11-26T16:23:40.543Z,8.00
2022-11-26T16:25:57.861Z,6.97
2022-11-26T16:28:14.805Z,6.68
2022-11-26T16:30:31.859Z,8.95
2022-11-26T16:32:48.838Z,9.05
2022-11-26T16:35:29.836Z,8.35
2022-11-26T16:37:42.983Z,9.90
2022-11-26T16:40:00.060Z,6.57
2022-11-26T16:42:16.982Z,11.88
2022-11-26T16:44:34.002Z,8.52
2022-11-26T16:46:50.955Z,10.88
2022-11-26T16:49:07.866Z,7.95
2022-11-26T16:51:24.914Z,7.90
2022-11-26T16:53:42.225Z,5.38
2022-11-26T16:56:00.173Z,7.65
2022-11-26T16:58:17.585Z,10.05
2022-11-26T17:00:34.856Z,11.70
2022-11-26T17:02:52.214Z,8.98
2022-11-26T17:05:09.355Z,8.05
2022-11-26T17:07:26.457Z,6.47
2022-11-26T17:09:44.658Z,7.35
2022-11-26T17:12:01.717Z,8.18
2022-11-26T17:14:19.024Z,8.65
2022-11-26T17:16:36.371Z,11.52
2022-11-26T17:18:53.433Z,7.40
2022-11-26T17:21:10.467Z,7.97
2022-11-26T17:23:27.506Z,7.80
2022-11-26T17:25:44.529Z,9.48
2022-11-26T17:28:01.853Z,8.45
2022-11-26T17:30:19.007Z,10.23
2022-11-26T17:32:36.326Z,6.50
2022-11-26T17:34:53.274Z,6.40
2022-11-26T17:37:10.486Z,5.93
2022-11-26T17:39:27.469Z,9.52
2022-11-26T17:41:44.460Z,9.18
2022-11-26T17:44:01.890Z,6.53
2022-11-26T17:46:19.340Z,7.95
2022-11-26T17:48:36.596Z,9.32
2022-11-26T17:50:53.891Z,8.52
2022-11-26T17:53:11.088Z,7.18
2022-11-26T17:55:28.473Z,13.90
2022-11-26T17:57:46.598Z,12.93
2022-11-26T18:00:03.951Z,10.93
2022-11-26T18:02:22.333Z,10.02
2022-11-26T18:04:39.651Z,11.68
2022-11-26T18:06:56.956Z,6.60
2022-11-26T18:09:14.019Z,6.38
2022-11-26T18:11:31.357Z,10.75
2022-11-26T18:13:49.699Z,9.55
2022-11-26T18:16:06.705Z,10.07
2022-11-26T18:18:24.021Z,9.38
2022-11-26T18:20:41.325Z,9.02
2022-11-26T18:22:59.360Z,8.77
2022-11-26T18:25:17.381Z,8.70
2022-11-26T18:27:34.307Z,8.95
2022-11-26T18:29:54.007Z,7.28
2022-11-26T18:32:11.209Z,10.48
2022-11-26T18:34:28.494Z,9.65
2022-11-26T18:36:50.686Z,9.25
2022-11-26T18:39:10.538Z,7.25
2022-11-26T18:41:27.456Z,11.43
2022-11-26T18:43:44.735Z,8.50
2022-11-26T18:46:02.362Z,7.65
2022-11-26T18:48:19.404Z,8.38
2022-11-26T18:50:37.646Z,7.93
2022-11-26T18:52:54.777Z,13.98
2022-11-26T18:55:14.379Z,9.27
2022-11-26T18:57:32.821Z,12.23
2022-11-26T18:59:49.899Z,9.43
2022-11-26T19:02:07.371Z,9.63
2022-11-26T19:04:24.290Z,9.10
2022-11-26T19:06:42.537Z,9.38
2022-11-26T19:08:59.578Z,9.57
2022-11-26T19:11:16.921Z,8.90
2022-11-26T19:13:34.118Z,11.15
2022-11-26T19:15:51.513Z,8.63
2022-11-26T19:18:08.605Z,8.77
2022-11-26T19:20:25.683Z,9.57
2022-11-26T19:22:42.999Z,9.65
2022-11-26T19:25:00.296Z,8.50
2022-11-26T19:27:17.576Z,8.48
2022-11-26T19:29:34.887Z,11.00
2022-11-26T19:31:53.346Z,11.20
2022-11-26T19:34:11.756Z,10.52
2022-11-26T19:36:28.853Z,9.63
2022-11-26T19:38:45.742Z,9.40
2022-11-26T19:41:02.907Z,11.65
2022-11-26T19:43:20.813Z,9.82
2022-11-26T19:45:38.208Z,8.38
2022-11-26T19:47:55.515Z,11.65
2022-11-26T19:50:12.813Z,12.90
2022-11-26T19:52:31.257Z,13.02
2022-11-26T19:54:49.356Z,11.77
2022-11-26T19:57:06.386Z,11.98
2022-11-26T19:59:23.352Z,9.45
2022-11-26T20:01:40.667Z,10.73
2022-11-26T20:03:58.038Z,8.55
2022-11-26T20:06:17.283Z,12.38
2022-11-26T20:08:34.570Z,13.50
2022-11-26T20:10:51.783Z,12.52
2022-11-26T20:13:09.038Z,11.30
2022-11-26T20:15:26.321Z,8.07
2022-11-26T20:17:51.302Z,10.88
2022-11-26T20:20:08.304Z,12.13
2022-11-26T20:22:28.083Z,10.40
2022-11-26T20:24:45.226Z,10.98
2022-11-26T20:27:02.485Z,10.80
2022-11-26T20:29:19.448Z,10.57
2022-11-26T20:31:36.401Z,10.27
2022-11-26T20:33:54.593Z,10.95
2022-11-26T20:36:11.904Z,12.05
2022-11-26T20:38:28.944Z,11.82
2022-11-26T20:40:45.900Z,15.02
2022-11-26T20:43:04.371Z,10.73
2022-11-26T20:45:21.357Z,10.18
2022-11-26T20:47:38.553Z,13.25
2022-11-26T20:49:55.698Z,9.20
2022-11-26T20:52:12.803Z,11.70
2022-11-26T20:54:30.165Z,11.52
2022-11-26T20:56:47.434Z,12.02
2022-11-26T20:59:04.375Z,9.90
2022-11-26T21:01:21.430Z,9.55
2022-11-26T21:03:38.861Z,12.40
2022-11-26T21:05:56.108Z,11.10
2022-11-26T21:08:13.403Z,9.80
2022-11-26T21:10:30.649Z,11.43
2022-11-26T21:12:47.838Z,11.63
2022-11-26T21:15:06.149Z,11.73
2022-11-26T21:17:23.318Z,11.32
2022-11-26T21:19:40.871Z,12.30
2022-11-26T21:21:58.291Z,12.55
2022-11-26T21:24:15.326Z,16.63
2022-11-26T21:26:32.638Z,11.73
2022-11-26T21:28:50.615Z,12.20
2022-11-26T21:31:09.026Z,18.17
2022-11-26T21:33:26.397Z,12.13
2022-11-26T21:35:43.416Z,14.10
2022-11-26T21:38:00.693Z,18.63
2022-11-26T21:40:18.687Z,12.57
2022-11-26T21:42:35.949Z,11.82
2022-11-26T21:44:52.896Z,12.75
2022-11-26T21:47:09.821Z,13.45
2022-11-26T21:49:26.922Z,15.38
2022-11-26T21:51:44.215Z,14.80
2022-11-26T21:54:01.205Z,11.43
2022-11-26T21:56:18.509Z,13.38
2022-11-26T21:58:35.883Z,9.38
2022-11-26T22:00:53.148Z,12.88
2022-11-26T22:03:11.701Z,15.30
2022-11-26T22:05:28.974Z,16.80
2022-11-26T22:07:46.637Z,14.45
2022-11-26T22:10:04.330Z,11.43
2022-11-26T22:12:21.699Z,12.68
2022-11-26T22:14:38.604Z,15.68
2022-11-26T22:16:56.587Z,12.80
2022-11-26T22:19:13.667Z,15.52
2022-11-26T22:21:31.738Z,12.82
2022-11-26T22:23:48.712Z,17.67
2022-11-26T22:26:05.999Z,21.70
2022-11-26T22:28:28.475Z,19.90
2022-11-26T22:30:47.248Z,23.00
2022-11-26T22:33:04.129Z,22.48
2022-11-26T22:35:21.460Z,22.58
2022-11-26T22:37:38.514Z,20.90
2022-11-26T22:39:55.727Z,23.80
2022-11-26T22:42:12.858Z,26.60
2022-11-26T22:44:29.960Z,22.13
2022-11-26T22:46:47.008Z,20.48
2022-11-26T22:49:04.418Z,23.60
2022-11-26T22:51:21.439Z,20.65
2022-11-26T22:53:38.521Z,21.00
2022-11-26T22:55:56.554Z,18.30
2022-11-26T22:58:14.657Z,26.05
2022-11-26T23:00:31.670Z,23.08
2022-11-26T23:02:49.002Z,24.58
2022-11-26T23:05:06.257Z,22.23
2022-11-26T23:07:25.814Z,23.95
2022-11-26T23:09:46.725Z,23.73
2022-11-26T23:12:05.191Z,24.88
2022-11-26T23:14:22.179Z,20.45
2022-11-26T23:16:39.688Z,23.50
2022-11-26T23:18:56.827Z,23.42
2022-11-26T23:21:13.852Z,17.23
2022-11-26T23:23:30.861Z,23.10
2022-11-26T23:25:47.947Z,24.77
2022-11-26T23:28:04.957Z,23.27
2022-11-26T23:30:21.968Z,28.50
2022-11-26T23:32:39.065Z,21.95
2022-11-26T23:34:56.157Z,22.08
2022-11-26T23:37:13.144Z,22.88
2022-11-26T23:39:31.063Z,21.70
2022-11-26T23:41:48.188Z,20.38
2022-11-26T23:44:06.552Z,21.30
2022-11-26T23:46:23.521Z,21.83
2022-11-26T23:48:40.730Z,18.90
2022-11-26T23:50:58.037Z,27.83
2022-11-26T23:53:16.134Z,21.35
2022-11-26T23:55:33.389Z,26.65
2022-11-26T23:57:50.862Z,21.35
